sensor_id;sensor_type;location;lat;lon;timestamp;temperature;humidity
3402;DHT22;1714;49.756;8.610;2022-07-12T00:02:49;17.60;45.10
3402;DHT22;1714;49.756;8.610;2022-07-12T00:12:51;17.50;45.10
3402;DHT22;1714;49.756;8.610;2022-07-12T00:22:53;17.30;46.60
3402;DHT22;1714;49.756;8.610;2022-07-12T00:32:55;17.20;45.60
3402;DHT22;1714;49.756;8.610;2022-07-12T00:42:57;17.00;46.50
3402;DHT22;1714;49.756;8.610;2022-07-12T00:52:58;16.90;49.20
3402;DHT22;1714;49.756;8.610;2022-07-12T01:03:02;16.60;54.90
3402;DHT22;1714;49.756;8.610;2022-07-12T01:13:07;17.00;52.10
3402;DHT22;1714;49.756;8.610;2022-07-12T01:23:09;16.80;51.40
3402;DHT22;1714;49.756;8.610;2022-07-12T01:33:11;16.60;51.50
3402;DHT22;1714;49.756;8.610;2022-07-12T01:43:13;16.50;52.30
3402;DHT22;1714;49.756;8.610;2022-07-12T01:53:16;16.20;53.00
3402;DHT22;1714;49.756;8.610;2022-07-12T02:03:18;16.10;53.70
3402;DHT22;1714;49.756;8.610;2022-07-12T02:13:20;15.80;53.20
3402;DHT22;1714;49.756;8.610;2022-07-12T02:23:25;15.80;55.10
3402;DHT22;1714;49.756;8.610;2022-07-12T02:33:27;15.80;54.20
3402;DHT22;1714;49.756;8.610;2022-07-12T02:43:30;15.60;55.20
3402;DHT22;1714;49.756;8.610;2022-07-12T02:53:33;15.30;56.80
3402;DHT22;1714;49.756;8.610;2022-07-12T03:03:40;15.40;55.70
3402;DHT22;1714;49.756;8.610;2022-07-12T03:13:43;15.20;55.70
3402;DHT22;1714;49.756;8.610;2022-07-12T03:23:44;15.10;55.70
3402;DHT22;1714;49.756;8.610;2022-07-12T03:33:47;15.10;56.20
3402;DHT22;1714;49.756;8.610;2022-07-12T03:43:48;15.00;55.70
3402;DHT22;1714;49.756;8.610;2022-07-12T03:53:50;14.90;56.00
3402;DHT22;1714;49.756;8.610;2022-07-12T04:03:52;14.80;58.30
3402;DHT22;1714;49.756;8.610;2022-07-12T04:13:56;14.80;60.20
3402;DHT22;1714;49.756;8.610;2022-07-12T04:23:59;14.60;60.30
3402;DHT22;1714;49.756;8.610;2022-07-12T04:34:00;14.70;64.70
3402;DHT22;1714;49.756;8.610;2022-07-12T04:44:06;14.90;66.30
3402;DHT22;1714;49.756;8.610;2022-07-12T04:54:08;15.00;66.00
3402;DHT22;1714;49.756;8.610;2022-07-12T05:04:10;15.10;67.30
3402;DHT22;1714;49.756;8.610;2022-07-12T05:14:12;15.30;69.30
3402;DHT22;1714;49.756;8.610;2022-07-12T05:24:14;15.40;71.80
3402;DHT22;1714;49.756;8.610;2022-07-12T05:34:16;15.70;71.30
3402;DHT22;1714;49.756;8.610;2022-07-12T05:44:19;15.90;71.90
3402;DHT22;1714;49.756;8.610;2022-07-12T05:54:21;16.10;69.30
3402;DHT22;1714;49.756;8.610;2022-07-12T06:04:23;16.30;69.20
3402;DHT22;1714;49.756;8.610;2022-07-12T06:14:25;16.70;71.60
3402;DHT22;1714;49.756;8.610;2022-07-12T06:24:26;17.00;70.40
3402;DHT22;1714;49.756;8.610;2022-07-12T06:34:28;17.30;71.50
3402;DHT22;1714;49.756;8.610;2022-07-12T06:44:33;17.70;68.00
3402;DHT22;1714;49.756;8.610;2022-07-12T06:54:35;18.10;64.60
3402;DHT22;1714;49.756;8.610;2022-07-12T07:04:37;18.40;62.20
3402;DHT22;1714;49.756;8.610;2022-07-12T07:14:39;18.80;55.90
3402;DHT22;1714;49.756;8.610;2022-07-12T07:24:42;19.10;53.20
3402;DHT22;1714;49.756;8.610;2022-07-12T07:34:45;19.60;44.60
3402;DHT22;1714;49.756;8.610;2022-07-12T07:44:47;21.10;41.30
3402;DHT22;1714;49.756;8.610;2022-07-12T07:55:10;22.50;32.00
3402;DHT22;1714;49.756;8.610;2022-07-12T08:05:11;23.40;26.30
3402;DHT22;1714;49.756;8.610;2022-07-12T08:15:14;24.10;20.00
3402;DHT22;1714;49.756;8.610;2022-07-12T08:25:16;24.40;18.90
3402;DHT22;1714;49.756;8.610;2022-07-12T08:35:21;24.80;17.60
3402;DHT22;1714;49.756;8.610;2022-07-12T08:45:23;24.30;17.40
3402;DHT22;1714;49.756;8.610;2022-07-12T09:05:33;25.40;14.80
3402;DHT22;1714;49.756;8.610;2022-07-12T09:15:35;26.00;13.30
3402;DHT22;1714;49.756;8.610;2022-07-12T09:25:38;27.00;12.50
3402;DHT22;1714;49.756;8.610;2022-07-12T09:35:41;27.60;10.80
3402;DHT22;1714;49.756;8.610;2022-07-12T09:46:19;27.80;10.50
3402;DHT22;1714;49.756;8.610;2022-07-12T09:56:35;27.40;8.80
3402;DHT22;1714;49.756;8.610;2022-07-12T10:06:39;28.10;10.60
3402;DHT22;1714;49.756;8.610;2022-07-12T10:16:46;28.80;7.90
3402;DHT22;1714;49.756;8.610;2022-07-12T10:26:53;28.20;8.30
3402;DHT22;1714;49.756;8.610;2022-07-12T10:47:16;30.10;5.30
3402;DHT22;1714;49.756;8.610;2022-07-12T10:57:42;29.40;4.10
3402;DHT22;1714;49.756;8.610;2022-07-12T11:07:45;30.00;6.30
3402;DHT22;1714;49.756;8.610;2022-07-12T11:17:49;30.30;6.00
3402;DHT22;1714;49.756;8.610;2022-07-12T11:27:53;30.00;5.10
3402;DHT22;1714;49.756;8.610;2022-07-12T11:37:57;30.70;5.20
3402;DHT22;1714;49.756;8.610;2022-07-12T11:48:01;31.00;4.10
3402;DHT22;1714;49.756;8.610;2022-07-12T11:58:05;30.50;5.40
3402;DHT22;1714;49.756;8.610;2022-07-12T12:08:08;30.30;4.90
3402;DHT22;1714;49.756;8.610;2022-07-12T12:18:13;30.60;3.50
3402;DHT22;1714;49.756;8.610;2022-07-12T12:28:15;30.30;3.80
3402;DHT22;1714;49.756;8.610;2022-07-12T12:38:18;31.70;2.60
3402;DHT22;1714;49.756;8.610;2022-07-12T12:48:24;31.10;2.80
3402;DHT22;1714;49.756;8.610;2022-07-12T12:58:27;31.20;2.60
3402;DHT22;1714;49.756;8.610;2022-07-12T13:08:32;31.20;2.50
3402;DHT22;1714;49.756;8.610;2022-07-12T13:18:35;31.80;2.00
3402;DHT22;1714;49.756;8.610;2022-07-12T13:28:37;31.90;1.50
3402;DHT22;1714;49.756;8.610;2022-07-12T13:38:39;32.00;1.70
3402;DHT22;1714;49.756;8.610;2022-07-12T13:48:42;32.00;1.00
3402;DHT22;1714;49.756;8.610;2022-07-12T13:58:46;32.70;1.00
3402;DHT22;1714;49.756;8.610;2022-07-12T14:08:48;31.50;1.00
3402;DHT22;1714;49.756;8.610;2022-07-12T14:18:53;32.80;1.00
3402;DHT22;1714;49.756;8.610;2022-07-12T14:28:58;32.80;1.00
3402;DHT22;1714;49.756;8.610;2022-07-12T14:39:02;32.60;1.00
3402;DHT22;1714;49.756;8.610;2022-07-12T14:49:04;32.80;1.00
3402;DHT22;1714;49.756;8.610;2022-07-12T14:59:07;32.70;1.00
3402;DHT22;1714;49.756;8.610;2022-07-12T15:09:10;32.40;1.00
3402;DHT22;1714;49.756;8.610;2022-07-12T15:19:12;32.20;1.00
3402;DHT22;1714;49.756;8.610;2022-07-12T15:29:19;31.50;1.00
3402;DHT22;1714;49.756;8.610;2022-07-12T15:39:22;31.90;1.00
3402;DHT22;1714;49.756;8.610;2022-07-12T15:49:25;31.70;1.00
3402;DHT22;1714;49.756;8.610;2022-07-12T15:59:26;31.30;1.00
3402;DHT22;1714;49.756;8.610;2022-07-12T16:09:29;31.80;1.00
3402;DHT22;1714;49.756;8.610;2022-07-12T16:19:32;31.50;1.00
3402;DHT22;1714;49.756;8.610;2022-07-12T16:29:34;31.70;1.00
3402;DHT22;1714;49.756;8.610;2022-07-12T16:39:37;31.40;1.00
3402;DHT22;1714;49.756;8.610;2022-07-12T16:49:39;30.60;1.00
3402;DHT22;1714;49.756;8.610;2022-07-12T16:59:41;30.50;1.40
3402;DHT22;1714;49.756;8.610;2022-07-12T17:09:43;29.70;2.70
3402;DHT22;1714;49.756;8.610;2022-07-12T17:19:45;29.00;5.90
3402;DHT22;1714;49.756;8.610;2022-07-12T17:29:48;28.80;3.70
3402;DHT22;1714;49.756;8.610;2022-07-12T17:39:49;28.50;4.60
3402;DHT22;1714;49.756;8.610;2022-07-12T17:49:52;28.00;5.00
3402;DHT22;1714;49.756;8.610;2022-07-12T17:59:54;27.50;6.30
3402;DHT22;1714;49.756;8.610;2022-07-12T18:09:56;27.10;7.40
3402;DHT22;1714;49.756;8.610;2022-07-12T18:20:00;26.70;6.80
3402;DHT22;1714;49.756;8.610;2022-07-12T18:30:05;26.80;6.90
3402;DHT22;1714;49.756;8.610;2022-07-12T18:40:08;26.20;6.10
3402;DHT22;1714;49.756;8.610;2022-07-12T18:50:10;25.80;11.90
3402;DHT22;1714;49.756;8.610;2022-07-12T19:00:21;25.20;14.10
3402;DHT22;1714;49.756;8.610;2022-07-12T19:10:23;24.80;12.70
3402;DHT22;1714;49.756;8.610;2022-07-12T19:20:25;24.40;13.80
3402;DHT22;1714;49.756;8.610;2022-07-12T19:30:27;23.90;18.10
3402;DHT22;1714;49.756;8.610;2022-07-12T19:40:29;23.50;19.80
3402;DHT22;1714;49.756;8.610;2022-07-12T19:50:32;23.10;20.00
3402;DHT22;1714;49.756;8.610;2022-07-12T20:00:34;22.80;20.20
3402;DHT22;1714;49.756;8.610;2022-07-12T20:10:38;22.60;21.50
3402;DHT22;1714;49.756;8.610;2022-07-12T20:20:41;22.20;24.40
3402;DHT22;1714;49.756;8.610;2022-07-12T20:30:47;21.90;24.30
3402;DHT22;1714;49.756;8.610;2022-07-12T20:40:54;21.50;23.40
3402;DHT22;1714;49.756;8.610;2022-07-12T20:51:13;21.50;23.30
3402;DHT22;1714;49.756;8.610;2022-07-12T21:01:15;21.30;22.90
3402;DHT22;1714;49.756;8.610;2022-07-12T21:11:18;21.10;27.80
3402;DHT22;1714;49.756;8.610;2022-07-12T21:21:21;20.90;26.40
3402;DHT22;1714;49.756;8.610;2022-07-12T21:31:31;20.70;27.00
3402;DHT22;1714;49.756;8.610;2022-07-12T21:41:34;20.50;24.90
3402;DHT22;1714;49.756;8.610;2022-07-12T21:51:36;20.40;25.40
3402;DHT22;1714;49.756;8.610;2022-07-12T22:01:39;20.20;26.80
3402;DHT22;1714;49.756;8.610;2022-07-12T22:11:43;19.90;28.90
3402;DHT22;1714;49.756;8.610;2022-07-12T22:21:45;19.70;28.90
3402;DHT22;1714;49.756;8.610;2022-07-12T22:31:48;19.60;29.20
3402;DHT22;1714;49.756;8.610;2022-07-12T22:41:52;19.50;28.30
3402;DHT22;1714;49.756;8.610;2022-07-12T22:51:54;19.50;28.50
3402;DHT22;1714;49.756;8.610;2022-07-12T23:01:58;19.30;30.20
3402;DHT22;1714;49.756;8.610;2022-07-12T23:12:01;19.20;29.80
3402;DHT22;1714;49.756;8.610;2022-07-12T23:22:04;19.10;30.00
3402;DHT22;1714;49.756;8.610;2022-07-12T23:32:07;19.20;31.60
3402;DHT22;1714;49.756;8.610;2022-07-12T23:42:08;19.50;30.30
3402;DHT22;1714;49.756;8.610;2022-07-12T23:52:10;19.50;30.00
